Time;durP1;ratioP1;P1;durP2;ratioP2;P2;SDS_P1;SDS_P2;PMS_P1;PMS_P2;Temp;Humidity;BMP_temperature;BMP_pressure;BME280_temperature;BME280_humidity;BME280_pressure;Samples;Min_cycle;Max_cycle;Signal;HPM_P1;HPM_P2
2022/07/23 00:02:21;;;;;;;8.70;5.60;;;;;;;26.49;38.73;97889.41;8315158;28;20245;-82
2022/07/23 00:06:25;;;;;;;9.77;6.03;;;;;;;26.37;39.54;97888.97;8315772;28;20231;-81
2022/07/23 00:10:30;;;;;;;9.23;6.47;;;;;;;26.24;39.70;97886.81;8315630;28;20231;-81
2022/07/23 00:14:34;;;;;;;6.87;5.93;;;;;;;26.23;39.24;97889.63;8315074;28;20274;-81
2022/07/23 00:18:37;;;;;;;9.53;5.97;;;;;;;26.19;39.27;97880.38;8315377;28;20233;-80
2022/07/23 00:22:46;;;;;;;9.23;5.93;;;;;;;26.17;39.66;97869.09;8315206;28;20238;-81
2022/07/23 00:26:51;;;;;;;8.37;5.87;;;;;;;26.21;39.89;97859.78;8322705;28;20388;-81
2022/07/23 00:30:53;;;;;;;8.70;6.73;;;;;;;26.16;39.57;97862.97;8314807;28;20237;-81
2022/07/23 00:34:57;;;;;;;6.50;5.90;;;;;;;26.14;40.22;97862.28;8314940;28;20248;-81
2022/07/23 00:39:00;;;;;;;8.77;6.50;;;;;;;26.09;40.66;97861.97;8314633;28;20401;-81
2022/07/23 00:43:04;;;;;;;7.90;6.53;;;;;;;26.04;40.40;97851.84;8315058;28;20240;-81
2022/07/23 00:47:07;;;;;;;9.53;6.37;;;;;;;25.96;40.82;97841.28;8314669;28;20254;-81
2022/07/23 00:51:10;;;;;;;9.23;6.50;;;;;;;25.91;40.94;97825.00;8315122;28;20239;-81
2022/07/23 00:55:13;;;;;;;6.67;6.07;;;;;;;25.97;40.65;97823.53;8314442;28;20225;-81
2022/07/23 00:59:18;;;;;;;10.00;6.93;;;;;;;25.91;40.68;97815.25;8315051;28;20227;-81
2022/07/23 01:03:22;;;;;;;9.83;6.70;;;;;;;25.96;41.10;97806.78;8314655;28;20228;-81
2022/07/23 01:07:25;;;;;;;9.53;6.70;;;;;;;25.84;41.46;97808.13;8314480;28;20409;-81
2022/07/23 01:11:28;;;;;;;11.53;6.80;;;;;;;25.91;41.23;97815.25;8314673;28;20250;-82
2022/07/23 01:15:33;;;;;;;9.63;6.30;;;;;;;25.94;41.54;97816.75;8314575;28;20261;-81
2022/07/23 01:19:36;;;;;;;11.73;6.70;;;;;;;25.84;42.03;97813.41;8314128;28;20229;-82
2022/07/23 01:23:40;;;;;;;10.57;7.20;;;;;;;25.78;41.80;97811.41;8314610;28;20233;-81
2022/07/23 01:27:43;;;;;;;9.93;7.20;;;;;;;25.74;42.16;97818.88;8314137;28;20236;-81
2022/07/23 01:31:46;;;;;;;10.10;6.73;;;;;;;25.74;42.10;97814.44;8314010;28;20227;-81
2022/07/23 01:35:49;;;;;;;9.67;6.63;;;;;;;25.67;42.34;97794.88;8314069;28;20584;-81
2022/07/23 01:39:53;;;;;;;11.20;6.50;;;;;;;25.72;42.37;97813.78;8314181;28;20235;-81
2022/07/23 01:43:56;;;;;;;9.20;6.93;;;;;;;25.69;42.57;97818.56;8314663;28;20266;-81
2022/07/23 01:47:59;;;;;;;8.83;7.13;;;;;;;25.63;42.70;97820.06;8319872;28;20242;-81
2022/07/23 01:52:02;;;;;;;7.80;7.00;;;;;;;25.68;42.29;97831.00;8320062;28;20242;-81
2022/07/23 01:56:07;;;;;;;8.70;6.93;;;;;;;25.69;42.56;97850.41;8319752;28;20232;-81
2022/07/23 02:00:11;;;;;;;9.87;6.93;;;;;;;25.68;42.17;97846.94;8319928;28;20226;-81
2022/07/23 02:04:14;;;;;;;12.63;7.40;;;;;;;25.62;41.82;97849.41;8319740;28;20242;-81
2022/07/23 02:08:17;;;;;;;11.00;7.57;;;;;;;25.56;41.79;97838.47;8319928;28;20270;-81
2022/07/23 02:12:21;;;;;;;9.43;6.93;;;;;;;25.53;42.15;97845.91;8319310;28;20235;-81
2022/07/23 02:16:24;;;;;;;9.73;6.60;;;;;;;25.43;42.07;97842.59;8319597;28;20237;-81
2022/07/23 02:20:27;;;;;;;9.33;6.80;;;;;;;25.45;42.18;97828.19;8319365;28;20233;-82
2022/07/23 02:24:30;;;;;;;9.33;6.93;;;;;;;25.53;42.06;97822.91;8319343;28;20226;-82
2022/07/23 02:28:34;;;;;;;10.97;7.03;;;;;;;25.52;42.36;97813.28;8318892;28;20230;-81
2022/07/23 02:32:37;;;;;;;8.93;7.03;;;;;;;25.52;42.66;97800.03;8319122;28;20425;-82
2022/07/23 02:36:40;;;;;;;11.43;6.73;;;;;;;25.47;42.43;97796.22;8318792;28;20231;-81
2022/07/23 02:40:43;;;;;;;8.03;7.07;;;;;;;25.40;42.92;97800.53;8318655;28;20236;-81
2022/07/23 02:44:47;;;;;;;9.60;7.40;;;;;;;24.75;44.53;97805.56;8318484;28;20233;-81
2022/07/23 02:48:50;;;;;;;12.10;7.57;;;;;;;24.88;44.43;97794.47;8325554;28;20245;-81
2022/07/23 02:52:53;;;;;;;9.77;6.77;;;;;;;24.97;44.65;97787.41;8318402;28;20547;-81
2022/07/23 02:56:55;;;;;;;11.80;7.80;;;;;;;24.84;44.94;97787.88;8317008;28;20240;-81
2022/07/23 03:01:00;;;;;;;11.60;7.70;;;;;;;24.77;45.92;97781.59;8317964;28;20239;-81
2022/07/23 03:05:03;;;;;;;9.70;7.63;;;;;;;24.55;47.13;97780.34;8317725;28;20238;-81
2022/07/23 03:09:06;;;;;;;14.10;8.57;;;;;;;24.27;48.79;97785.84;8317775;28;20425;-81
2022/07/23 03:13:08;;;;;;;11.57;7.70;;;;;;;24.58;47.93;97790.63;8317663;28;20520;-81
2022/07/23 03:17:13;;;;;;;11.47;8.40;;;;;;;24.67;47.97;97810.81;8317718;28;20226;-81
2022/07/23 03:21:16;;;;;;;10.80;8.63;;;;;;;24.64;48.55;97808.50;8317568;28;20229;-81
2022/07/23 03:25:18;;;;;;;12.03;8.30;;;;;;;24.78;48.03;97805.22;8317471;28;20228;-81
2022/07/23 03:29:21;;;;;;;12.63;9.07;;;;;;;24.27;49.98;97804.34;8317147;28;20246;-81
2022/07/23 03:33:25;;;;;;;15.50;9.27;;;;;;;24.07;50.88;97805.59;8316976;28;20225;-81
2022/07/23 03:37:28;;;;;;;10.97;8.80;;;;;;;24.16;50.63;97802.00;8316701;28;20538;-81
2022/07/23 03:41:31;;;;;;;11.43;8.90;;;;;;;24.13;51.16;97810.25;8316546;28;20252;-81
2022/07/23 03:45:34;;;;;;;11.50;9.20;;;;;;;24.07;51.61;97818.84;8316469;28;20539;-81
2022/07/23 03:49:39;;;;;;;11.00;8.97;;;;;;;24.12;52.10;97806.78;8316548;28;20376;-81
2022/07/23 03:53:42;;;;;;;10.10;8.90;;;;;;;24.32;51.11;97810.00;8316346;28;20423;-80
2022/07/23 03:57:45;;;;;;;16.00;10.50;;;;;;;23.40;55.20;97806.94;8316482;28;20417;-81
2022/07/23 04:01:48;;;;;;;12.43;10.00;;;;;;;23.64;54.51;97815.22;8315729;28;20231;-80
2022/07/23 04:05:52;;;;;;;12.07;10.10;;;;;;;23.63;54.79;97819.69;8315911;28;20529;-81
2022/07/23 04:09:55;;;;;;;16.23;9.70;;;;;;;24.02;53.63;97827.22;8315627;28;20526;-81
2022/07/23 04:13:58;;;;;;;12.73;10.37;;;;;;;23.80;54.41;97829.41;8315987;28;20561;-80
2022/07/23 04:18:00;;;;;;;11.73;9.60;;;;;;;23.78;54.52;97826.09;8315734;28;20237;-81
2022/07/23 04:22:05;;;;;;;14.67;9.77;;;;;;;23.78;54.82;97834.03;8315535;28;20243;-81
2022/07/23 04:26:08;;;;;;;14.27;10.47;;;;;;;23.60;55.49;97835.84;8315516;28;20238;-81
2022/07/23 04:30:16;;;;;;;18.73;10.20;;;;;;;23.44;56.10;97836.53;8315561;28;20234;-81
2022/07/23 04:34:19;;;;;;;10.70;9.60;;;;;;;23.81;54.43;97841.63;8315218;28;20232;-81
2022/07/23 04:38:23;;;;;;;13.50;9.20;;;;;;;24.19;53.49;97842.19;8315357;28;20228;-81
2022/07/23 04:42:26;;;;;;;15.33;9.90;;;;;;;24.26;53.27;97838.94;8315305;28;20528;-81
2022/07/23 04:46:29;;;;;;;12.67;10.00;;;;;;;24.04;54.09;97835.00;8314957;28;20233;-81
2022/07/23 04:50:33;;;;;;;15.60;10.50;;;;;;;23.81;55.14;97844.28;8315113;28;20236;-81
2022/07/23 04:54:37;;;;;;;13.43;10.10;;;;;;;24.04;54.05;97849.06;8315095;28;20292;-81
2022/07/23 04:58:40;;;;;;;13.27;9.47;;;;;;;24.18;53.63;97834.44;8315101;28;20228;-81
2022/07/23 05:02:43;;;;;;;17.30;9.80;;;;;;;23.99;54.34;97828.38;8315087;28;20233;-80
2022/07/23 05:06:46;;;;;;;11.87;9.23;;;;;;;24.26;53.20;97837.13;8314632;28;20251;-80
2022/07/23 05:10:50;;;;;;;15.13;9.30;;;;;;;24.34;52.64;97841.63;8314380;28;20371;-80
2022/07/23 05:14:53;;;;;;;12.87;9.00;;;;;;;24.47;52.30;97857.06;8314698;28;20231;-75
2022/07/23 05:18:56;;;;;;;16.40;9.10;;;;;;;24.47;52.39;97865.00;8315274;28;20237;-76
2022/07/23 05:22:59;;;;;;;17.73;9.57;;;;;;;24.64;51.82;97869.41;8321023;28;20240;-75
2022/07/23 05:27:03;;;;;;;13.57;8.63;;;;;;;24.65;51.81;97865.75;8320833;28;20237;-75
2022/07/23 05:31:06;;;;;;;13.57;8.90;;;;;;;24.86;51.18;97861.84;8320783;28;20425;-75
2022/07/23 05:35:10;;;;;;;9.13;7.50;;;;;;;25.06;50.25;97863.25;8320518;28;20271;-75
2022/07/23 05:39:12;;;;;;;8.97;7.37;;;;;;;25.26;49.28;97865.63;8320428;28;20236;-75
2022/07/23 05:43:16;;;;;;;7.87;6.53;;;;;;;25.55;47.87;97865.97;8320595;28;20408;-75
2022/07/23 05:47:19;;;;;;;23.50;10.50;;;;;;;25.54;48.36;97884.69;8320157;28;20262;-75
2022/07/23 05:51:22;;;;;;;10.67;6.33;;;;;;;25.64;48.88;97893.31;8320188;28;20237;-75
2022/07/23 05:55:25;;;;;;;14.30;7.17;;;;;;;25.80;50.39;97889.84;8319726;28;20238;-75
2022/07/23 05:59:29;;;;;;;13.63;6.90;;;;;;;25.83;48.59;97899.28;8319898;28;20232;-75
2022/07/23 06:03:32;;;;;;;8.60;5.70;;;;;;;25.98;46.82;97913.56;8319547;28;20233;-75
2022/07/23 06:07:36;;;;;;;6.90;5.63;;;;;;;25.87;47.63;97913.88;8319620;28;20295;-75
2022/07/23 06:11:38;;;;;;;7.97;5.70;;;;;;;25.88;46.61;97921.66;8319810;28;20243;-79
2022/07/23 06:15:43;;;;;;;7.13;5.10;;;;;;;26.07;46.42;97923.16;8319467;28;20230;-79
2022/07/23 06:19:46;;;;;;;6.67;5.43;;;;;;;26.33;44.48;97932.75;8319196;28;20235;-79
2022/07/23 06:23:49;;;;;;;7.07;5.03;;;;;;;26.40;44.62;97928.41;8318615;28;20233;-79
2022/07/23 06:27:51;;;;;;;9.23;5.23;;;;;;;26.57;44.24;97928.38;8318788;28;20256;-79
2022/07/23 06:31:56;;;;;;;6.70;4.47;;;;;;;26.58;44.35;97927.38;8318528;28;20246;-79
2022/07/23 06:35:59;;;;;;;5.97;4.73;;;;;;;26.84;43.60;97927.16;8318891;28;20230;-80
2022/07/23 06:40:02;;;;;;;5.70;4.77;;;;;;;27.14;43.14;97938.81;8318882;28;20258;-80
2022/07/23 06:44:08;;;;;;;5.70;5.10;;;;;;;27.27;42.95;97949.72;8318393;28;20352;-79
2022/07/23 06:48:12;;;;;;;7.63;5.77;;;;;;;27.09;42.94;97955.28;8318305;28;20242;-79
2022/07/23 06:52:15;;;;;;;10.57;5.83;;;;;;;26.95;43.97;97947.22;8318635;28;20232;-79
2022/07/23 06:56:17;;;;;;;9.17;5.80;;;;;;;26.92;43.38;97954.53;8318453;28;20232;-80
2022/07/23 07:00:20;;;;;;;12.67;5.80;;;;;;;26.82;43.70;97964.50;8318120;28;20236;-81
2022/07/23 07:04:25;;;;;;;13.53;5.83;;;;;;;26.78;43.60;97957.88;8318130;28;20531;-78
2022/07/23 07:08:28;;;;;;;6.27;5.37;;;;;;;26.80;44.02;97969.16;8318204;28;20534;-79
2022/07/23 07:12:30;;;;;;;10.13;5.83;;;;;;;26.83;43.85;97976.81;8317573;28;20233;-79
2022/07/23 07:16:33;;;;;;;10.23;6.13;;;;;;;26.57;44.47;97994.78;8317757;28;20224;-79
2022/07/23 07:20:37;;;;;;;10.47;6.40;;;;;;;26.55;45.21;97994.94;8317447;28;20231;-79
2022/07/23 07:24:40;;;;;;;12.27;6.40;;;;;;;26.65;45.24;98013.38;8317326;28;20257;-78
2022/07/23 07:28:43;;;;;;;16.40;6.90;;;;;;;26.45;45.00;98018.19;8317392;28;20236;-78
2022/07/23 07:32:46;;;;;;;9.20;6.20;;;;;;;26.09;46.25;98014.06;8317334;28;20544;-79
2022/07/23 07:37:00;;;;;;;9.87;6.50;;;;;;;25.91;46.54;98031.91;8316677;28;20251;-79
2022/07/23 07:41:02;;;;;;;15.77;7.90;;;;;;;25.78;50.63;98040.34;8316398;28;20240;-80
2022/07/23 07:45:06;;;;;;;7.30;6.60;;;;;;;25.68;50.99;98037.00;8316176;28;20233;-79
2022/07/23 07:49:09;;;;;;;8.30;6.10;;;;;;;25.81;50.39;98031.22;8316349;28;20239;-81
2022/07/23 07:53:19;;;;;;;8.60;6.30;;;;;;;25.71;50.08;98042.00;8316404;28;20337;-80
2022/07/23 07:57:22;;;;;;;7.53;5.87;;;;;;;25.77;50.79;98043.16;8316175;28;20230;-78
2022/07/23 08:01:25;;;;;;;7.73;5.90;;;;;;;25.69;50.45;98042.16;8315957;28;20231;-78
2022/07/23 08:05:29;;;;;;;7.17;5.20;;;;;;;25.21;50.18;98048.94;8315735;28;20236;-76
2022/07/23 08:09:33;;;;;;;7.43;5.57;;;;;;;25.50;49.40;98058.34;8315600;28;20242;-76
2022/07/23 08:13:36;;;;;;;11.03;5.80;;;;;;;25.49;50.01;98054.88;8315512;28;20225;-76
2022/07/23 08:17:39;;;;;;;9.53;6.13;;;;;;;25.39;50.55;98043.56;8315037;28;20242;-76
2022/07/23 08:21:42;;;;;;;9.07;5.87;;;;;;;25.55;49.89;98050.72;8315435;28;20283;-76
2022/07/23 08:25:47;;;;;;;7.67;5.80;;;;;;;25.74;49.67;98033.69;8315638;28;20553;-76
2022/07/23 08:29:49;;;;;;;9.03;5.63;;;;;;;25.85;49.77;98024.59;8314724;28;20234;-76
2022/07/23 08:33:52;;;;;;;8.77;5.17;;;;;;;26.00;49.42;98033.59;8314877;28;20234;-76
2022/07/23 08:37:55;;;;;;;7.80;6.03;;;;;;;25.92;53.60;98036.25;8314965;28;20243;-76
2022/07/23 08:42:00;;;;;;;7.60;5.73;;;;;;;25.99;52.68;98049.69;8314543;28;20238;-76
2022/07/23 08:46:04;;;;;;;7.77;5.83;;;;;;;25.86;54.90;98050.97;8314733;28;20260;-76
2022/07/23 08:50:08;;;;;;;7.23;6.03;;;;;;;25.90;53.51;98067.41;8314603;28;20252;-77
2022/07/23 08:54:11;;;;;;;10.63;6.87;;;;;;;25.84;54.56;98082.16;8315007;28;20403;-77
2022/07/23 08:58:15;;;;;;;6.80;5.67;;;;;;;26.17;52.15;98076.91;8314985;28;20228;-77
2022/07/23 09:02:19;;;;;;;8.20;6.80;;;;;;;26.22;53.08;98095.84;8314288;28;20231;-77
2022/07/23 09:06:22;;;;;;;10.53;6.30;;;;;;;26.61;52.33;98099.69;8314705;28;20547;-77
2022/07/23 09:10:24;;;;;;;9.37;6.60;;;;;;;26.38;54.16;98116.25;8314312;28;20231;-76
2022/07/23 09:14:38;;;;;;;8.63;6.57;;;;;;;26.16;53.75;98116.88;8314554;28;20229;-76
2022/07/23 09:18:44;;;;;;;8.77;7.03;;;;;;;26.96;50.89;98105.63;8314415;28;20239;-76
2022/07/23 09:22:48;;;;;;;9.30;6.97;;;;;;;26.85;51.80;98112.94;8313820;28;20232;-76
2022/07/23 09:26:51;;;;;;;8.20;7.40;;;;;;;26.33;53.49;98116.75;8314406;28;20237;-76
2022/07/23 09:30:55;;;;;;;10.37;7.80;;;;;;;26.18;53.54;98107.78;8314080;28;20250;-76
2022/07/23 09:34:58;;;;;;;10.03;8.27;;;;;;;25.69;55.47;98111.09;8313896;28;20234;-76
2022/07/23 09:39:01;;;;;;;8.40;7.60;;;;;;;26.14;53.19;98111.72;8313944;28;20244;-77
2022/07/23 09:43:04;;;;;;;11.50;7.90;;;;;;;26.12;53.08;98106.59;8313802;28;20244;-79
2022/07/23 09:47:08;;;;;;;12.40;7.30;;;;;;;26.24;52.68;98107.13;8314120;28;20243;-79
2022/07/23 09:51:11;;;;;;;11.93;7.23;;;;;;;26.18;53.01;98106.94;8313959;28;20250;-79
2022/07/23 09:55:14;;;;;;;8.23;7.10;;;;;;;25.91;54.20;98114.13;8313554;28;20234;-79
2022/07/23 09:59:18;;;;;;;9.17;7.37;;;;;;;25.72;54.68;98120.53;8313595;28;20242;-79
2022/07/23 10:03:24;;;;;;;10.43;7.43;;;;;;;25.73;54.59;98125.69;8313145;28;20255;-79
2022/07/23 10:07:29;;;;;;;8.03;7.00;;;;;;;25.87;54.57;98118.94;8317911;28;20239;-79
2022/07/23 10:11:34;;;;;;;8.70;7.17;;;;;;;25.85;54.89;98117.44;8319499;28;20254;-79
2022/07/23 10:15:37;;;;;;;12.00;7.53;;;;;;;25.73;54.96;98120.41;8319116;28;20245;-79
2022/07/23 10:19:42;;;;;;;10.30;7.23;;;;;;;25.77;55.39;98128.88;8318998;28;20234;-78
2022/07/23 10:23:49;;;;;;;12.90;7.30;;;;;;;25.67;56.14;98117.56;8319098;28;20240;-79
2022/07/23 10:28:11;;;;;;;7.80;6.80;;;;;;;25.93;54.25;98106.88;8326023;28;20234;-79
2022/07/23 10:32:21;;;;;;;7.67;6.97;;;;;;;25.88;54.36;98102.03;8318742;28;20568;-79
2022/07/23 10:36:30;;;;;;;9.07;6.97;;;;;;;26.12;53.41;98103.97;8318756;28;20595;-78
2022/07/23 10:40:33;;;;;;;8.90;7.07;;;;;;;25.87;53.73;98089.75;8318028;28;20232;-79
2022/07/23 10:44:40;;;;;;;10.07;7.23;;;;;;;25.68;53.57;98090.91;8318041;28;20432;-79
2022/07/23 10:48:43;;;;;;;10.10;7.30;;;;;;;25.80;54.55;98095.88;8318111;28;20416;-78
2022/07/23 10:53:11;;;;;;;10.77;7.70;;;;;;;25.58;55.28;98092.00;8318236;28;20242;-78
2022/07/23 10:57:15;;;;;;;8.77;7.30;;;;;;;25.84;55.08;98097.25;8322124;28;20225;-79
2022/07/23 11:01:37;;;;;;;9.27;7.80;;;;;;;25.86;55.43;98095.25;8317488;28;20225;-77
2022/07/23 11:05:42;;;;;;;9.77;7.47;;;;;;;25.74;56.83;98100.84;8316357;28;20293;-79
2022/07/23 11:09:47;;;;;;;8.73;7.00;;;;;;;26.07;55.96;98100.94;8317560;28;20230;-80
2022/07/23 11:13:50;;;;;;;10.90;7.50;;;;;;;25.90;56.81;98100.06;8324182;28;20229;-78
2022/07/23 11:18:00;;;;;;;9.40;7.83;;;;;;;25.64;57.06;98100.13;8316118;28;20268;-79
2022/07/23 11:22:03;;;;;;;13.87;7.40;;;;;;;25.55;56.45;98090.50;8316835;28;20237;-79
2022/07/23 11:26:08;;;;;;;13.70;7.20;;;;;;;25.49;56.77;98094.63;8317183;28;20238;-80
2022/07/23 11:30:32;;;;;;;8.90;7.53;;;;;;;25.97;56.44;98091.47;8316625;28;20240;-82
2022/07/23 11:34:36;;;;;;;12.10;7.77;;;;;;;27.53;52.01;98086.03;8316779;28;20232;-81
2022/07/23 11:38:39;;;;;;;8.13;7.03;;;;;;;26.69;52.48;98084.59;8316753;28;20235;-80
2022/07/23 11:42:53;;;;;;;10.70;6.27;;;;;;;27.69;50.19;98077.97;8316432;28;20278;-80
2022/07/23 11:46:57;;;;;;;8.70;6.70;;;;;;;27.54;49.59;98082.38;8316085;28;20231;-80
2022/07/23 11:51:00;;;;;;;9.80;7.17;;;;;;;27.46;49.23;98069.97;8316452;28;20241;-81
2022/07/23 11:55:05;;;;;;;9.27;6.70;;;;;;;27.35;49.29;98057.03;8316266;28;20538;-81
2022/07/23 11:59:11;;;;;;;8.40;6.80;;;;;;;27.78;49.53;98062.78;8316222;28;20249;-81
2022/07/23 12:03:14;;;;;;;7.27;6.47;;;;;;;28.69;47.02;98047.00;8315727;28;20297;-81
2022/07/23 12:07:31;;;;;;;7.83;6.27;;;;;;;28.86;46.00;98048.50;8315919;28;20230;-82
2022/07/23 12:11:34;;;;;;;8.13;6.20;;;;;;;29.44;44.42;98043.38;8315495;28;20230;-81
2022/07/23 12:15:40;;;;;;;7.70;6.40;;;;;;;29.15;45.54;98047.72;8315398;28;20258;-81
2022/07/23 12:19:43;;;;;;;8.47;6.03;;;;;;;29.44;45.60;98046.03;8315595;28;20260;-81
2022/07/23 12:23:49;;;;;;;7.40;6.70;;;;;;;29.41;44.67;98030.38;8323162;28;20251;-81
2022/07/23 12:28:07;;;;;;;7.77;6.50;;;;;;;29.36;45.01;98025.63;8315080;28;20240;-80
2022/07/23 12:32:20;;;;;;;7.93;5.80;;;;;;;30.23;42.92;98017.72;8315404;28;20251;-80
2022/07/23 12:36:38;;;;;;;7.57;6.00;;;;;;;30.27;41.90;98018.97;8315189;28;20238;-80
2022/07/23 12:40:44;;;;;;;6.40;5.73;;;;;;;30.32;41.58;98014.72;8314806;28;20232;-80
2022/07/23 12:45:09;;;;;;;8.27;6.40;;;;;;;29.27;44.62;98009.91;8315030;28;20230;-79
2022/07/23 12:49:26;;;;;;;7.33;6.20;;;;;;;28.77;42.86;98009.63;8313848;28;20233;-82
2022/07/23 12:53:34;;;;;;;9.07;6.10;;;;;;;29.63;41.61;98007.25;8314802;28;20419;-81
2022/07/23 12:57:47;;;;;;;7.43;5.77;;;;;;;29.69;41.53;98006.50;8314654;28;20227;-80
2022/07/23 13:01:57;;;;;;;6.23;5.63;;;;;;;29.27;42.34;98005.41;8313688;28;20236;-80
2022/07/23 13:06:02;;;;;;;6.07;5.47;;;;;;;29.10;42.68;98011.94;8314910;28;20233;-79
2022/07/23 13:10:05;;;;;;;8.40;6.00;;;;;;;29.13;41.69;98000.91;8314447;28;20239;-79
2022/07/23 13:14:09;;;;;;;6.17;5.27;;;;;;;29.24;40.71;98009.28;8314257;28;20234;-79
2022/07/23 13:18:11;;;;;;;6.80;5.70;;;;;;;29.17;39.28;98011.03;8314250;28;20247;-78
2022/07/23 13:22:15;;;;;;;7.00;5.47;;;;;;;29.53;38.34;98010.22;8314186;28;20234;-79
2022/07/23 13:26:19;;;;;;;11.97;5.40;;;;;;;29.16;38.14;98012.03;8314056;28;20236;-78
2022/07/23 13:30:21;;;;;;;6.03;5.43;;;;;;;29.77;37.47;98013.59;8314165;28;20240;-78
2022/07/23 13:34:26;;;;;;;9.07;5.13;;;;;;;29.29;37.13;98011.38;8314591;28;20257;-78
2022/07/23 13:38:30;;;;;;;9.60;5.30;;;;;;;29.21;37.57;98011.50;8313718;28;20404;-78
2022/07/23 13:42:33;;;;;;;5.83;5.17;;;;;;;29.55;36.56;98015.34;8318592;28;20244;-78
2022/07/23 13:46:36;;;;;;;6.53;5.23;;;;;;;29.33;36.22;98011.84;8319903;28;20236;-78
2022/07/23 13:50:40;;;;;;;5.73;5.03;;;;;;;29.16;36.88;98009.38;8320145;28;20244;-77
2022/07/23 13:54:44;;;;;;;8.47;5.27;;;;;;;29.11;36.25;98005.56;8320028;28;20541;-78
2022/07/23 13:58:47;;;;;;;11.00;5.40;;;;;;;28.82;37.02;97999.25;8319494;28;20242;-77
2022/07/23 14:02:50;;;;;;;6.10;4.97;;;;;;;28.88;36.07;97998.50;8319562;28;20234;-78
2022/07/23 14:06:53;;;;;;;7.63;5.30;;;;;;;29.01;36.24;98005.84;8319289;28;20231;-78
2022/07/23 14:10:57;;;;;;;6.83;5.10;;;;;;;29.04;37.57;98011.66;8319427;28;20262;-78
2022/07/23 14:15:01;;;;;;;11.03;5.20;;;;;;;28.88;36.46;98016.34;8319354;28;20229;-78
2022/07/23 14:19:04;;;;;;;10.60;5.57;;;;;;;28.82;36.95;98021.38;8319132;28;20233;-77
2022/07/23 14:23:07;;;;;;;7.87;5.17;;;;;;;28.87;36.25;98015.50;8319278;28;20244;-78
2022/07/23 14:27:16;;;;;;;8.67;5.17;;;;;;;29.09;36.18;98018.25;8319300;28;20236;-78
2022/07/23 14:31:19;;;;;;;6.63;5.23;;;;;;;28.78;36.28;98012.09;8318761;28;20245;-77
2022/07/23 14:35:23;;;;;;;7.90;5.40;;;;;;;29.00;36.08;98012.22;8318993;28;20228;-77
2022/07/23 14:39:26;;;;;;;9.00;5.47;;;;;;;29.17;35.78;98013.69;8318598;28;20528;-77
2022/07/23 14:43:30;;;;;;;6.90;5.30;;;;;;;29.85;34.66;98004.63;8318377;28;20247;-78
2022/07/23 14:47:33;;;;;;;10.60;5.07;;;;;;;29.92;34.25;98016.19;8318189;28;20232;-81
2022/07/23 14:51:36;;;;;;;8.07;4.87;;;;;;;29.81;33.38;98013.00;8318047;28;20239;-78
2022/07/23 14:55:39;;;;;;;8.23;5.53;;;;;;;30.07;32.21;98002.78;8318343;28;20235;-78
2022/07/23 14:59:43;;;;;;;8.73;5.03;;;;;;;30.23;32.82;98002.50;8317972;28;20548;-78
2022/07/23 15:03:46;;;;;;;7.10;5.30;;;;;;;29.64;33.47;98000.88;8317581;28;20245;-79
2022/07/23 15:07:50;;;;;;;9.53;5.20;;;;;;;29.48;34.08;98004.63;8317232;28;20546;-78
2022/07/23 15:11:52;;;;;;;13.30;5.40;;;;;;;29.15;34.33;98004.22;8317500;28;20235;-78
2022/07/23 15:15:57;;;;;;;6.27;5.10;;;;;;;29.21;34.46;98009.63;8317607;28;20234;-78
2022/07/23 15:19:59;;;;;;;10.20;5.60;;;;;;;29.05;35.15;98009.81;8317826;28;20256;-80
2022/07/23 15:24:02;;;;;;;10.37;5.90;;;;;;;28.87;35.77;98007.53;8317203;28;20240;-78
2022/07/23 15:28:05;;;;;;;8.03;5.60;;;;;;;28.88;36.36;98017.16;8316936;28;20227;-78
2022/07/23 15:32:12;;;;;;;11.60;5.73;;;;;;;28.72;35.61;98015.50;8316658;28;20287;-77
2022/07/23 15:36:18;;;;;;;7.70;5.10;;;;;;;29.07;36.82;98007.78;8316962;28;20236;-76
2022/07/23 15:40:22;;;;;;;6.97;5.30;;;;;;;28.88;36.44;98003.81;8316759;28;20255;-75
2022/07/23 15:44:25;;;;;;;9.50;5.63;;;;;;;28.71;37.18;98008.53;8316474;28;20236;-75
2022/07/23 15:48:32;;;;;;;8.00;5.60;;;;;;;28.54;37.30;98015.88;8316132;28;20447;-75
2022/07/23 15:52:35;;;;;;;6.17;5.57;;;;;;;28.55;38.01;98014.03;8316112;28;20239;-76
2022/07/23 15:56:40;;;;;;;9.60;5.47;;;;;;;28.31;37.88;98015.88;8316133;28;20238;-75
2022/07/23 16:00:44;;;;;;;8.83;5.50;;;;;;;28.27;37.41;98017.22;8315808;28;20419;-75
2022/07/23 16:04:49;;;;;;;6.97;5.03;;;;;;;28.42;37.21;98022.59;8314959;28;20477;-74
2022/07/23 16:08:52;;;;;;;8.77;5.40;;;;;;;28.80;36.77;98018.06;8315688;28;20242;-74
2022/07/23 16:12:58;;;;;;;8.17;5.57;;;;;;;28.80;37.06;98017.25;8315767;28;20287;-74
2022/07/23 16:17:00;;;;;;;7.87;5.80;;;;;;;28.99;36.97;98027.34;8315647;28;20248;-75
2022/07/23 16:21:05;;;;;;;7.53;5.40;;;;;;;29.15;36.82;98020.22;8315561;28;20421;-74
2022/07/23 16:25:17;;;;;;;10.63;4.90;;;;;;;29.11;36.19;98024.22;8315446;28;20232;-74
2022/07/23 16:29:19;;;;;;;8.13;5.07;;;;;;;28.95;36.33;98010.09;8315357;28;20438;-75
2022/07/23 16:33:22;;;;;;;8.67;4.70;;;;;;;28.95;35.52;98015.41;8314948;28;20247;-75
2022/07/23 16:37:27;;;;;;;10.00;5.17;;;;;;;28.73;36.41;98021.66;8315016;28;20255;-75
2022/07/23 16:41:29;;;;;;;8.63;5.07;;;;;;;28.51;36.08;98020.69;8314924;28;20237;-74
2022/07/23 16:45:33;;;;;;;9.70;5.43;;;;;;;28.63;36.21;98020.06;8315915;28;20586;-77
2022/07/23 16:49:36;;;;;;;8.07;5.47;;;;;;;28.81;36.06;98025.06;8316568;28;20239;-77
2022/07/23 16:53:40;;;;;;;8.43;5.10;;;;;;;28.83;35.89;98023.03;8314469;28;20229;-77
2022/07/23 16:57:43;;;;;;;12.20;6.47;;;;;;;28.88;36.18;98019.81;8314692;28;20232;-78
2022/07/23 17:01:46;;;;;;;13.07;6.30;;;;;;;28.84;35.59;98026.53;8313883;28;20245;-79
2022/07/23 17:05:49;;;;;;;9.63;5.50;;;;;;;28.52;35.22;98035.69;8314088;28;20235;-76
2022/07/23 17:09:54;;;;;;;6.77;5.50;;;;;;;28.43;35.88;98042.91;8314497;28;20237;-76
2022/07/23 17:13:56;;;;;;;8.37;5.10;;;;;;;28.31;35.29;98039.84;8314258;28;20243;-77
2022/07/23 17:17:59;;;;;;;6.83;5.40;;;;;;;28.27;35.68;98041.19;8320055;28;20546;-76
2022/07/23 17:22:02;;;;;;;8.00;5.27;;;;;;;28.13;35.93;98045.47;8321009;28;20243;-77
2022/07/23 17:26:06;;;;;;;6.83;5.50;;;;;;;28.15;35.97;98046.13;8321215;28;20404;-75
2022/07/23 17:30:10;;;;;;;8.43;5.90;;;;;;;28.08;36.02;98045.16;8320682;28;20422;-75
2022/07/23 17:34:14;;;;;;;9.10;5.27;;;;;;;28.06;35.65;98047.16;8320442;28;20236;-76
2022/07/23 17:38:17;;;;;;;5.57;4.83;;;;;;;28.10;36.45;98051.13;8320832;28;20236;-76
2022/07/23 17:42:21;;;;;;;10.00;7.00;;;;;;;28.22;36.61;98048.91;8320272;28;20540;-76
2022/07/23 17:46:24;;;;;;;83.10;36.50;;;;;;;28.21;37.34;98052.56;8320010;28;20601;-76
2022/07/23 17:50:27;;;;;;;117.23;53.97;;;;;;;28.15;37.96;98051.44;8320361;28;20232;-76
2022/07/23 17:54:30;;;;;;;163.73;57.77;;;;;;;28.06;37.23;98053.34;8320194;28;20233;-76
2022/07/23 17:58:35;;;;;;;53.33;18.70;;;;;;;28.03;36.58;98060.84;8320233;28;20236;-76
2022/07/23 18:02:38;;;;;;;52.90;22.47;;;;;;;28.08;37.63;98056.66;8318885;28;20418;-75
2022/07/23 18:06:41;;;;;;;27.47;13.83;;;;;;;28.03;37.56;98056.34;8319002;28;20531;-74
2022/07/23 18:10:44;;;;;;;19.13;10.10;;;;;;;27.92;37.01;98062.09;8299024;28;20233;-75
2022/07/23 18:14:48;;;;;;;15.07;7.73;;;;;;;27.86;37.10;98068.09;8286457;28;20233;-74
2022/07/23 18:18:51;;;;;;;6.53;5.67;;;;;;;27.80;36.52;98072.28;8286655;28;20539;-75
2022/07/23 18:22:54;;;;;;;6.60;5.07;;;;;;;27.76;36.62;98076.28;8286316;28;20245;-75
2022/07/23 18:26:57;;;;;;;9.30;5.33;;;;;;;27.66;36.80;98068.53;8285990;28;20536;-75
2022/07/23 18:31:02;;;;;;;8.97;5.30;;;;;;;27.66;36.95;98075.66;8286255;28;20236;-75
2022/07/23 18:35:06;;;;;;;10.00;5.30;;;;;;;27.52;36.21;98079.06;8286249;28;20565;-74
2022/07/23 18:39:12;;;;;;;5.60;4.57;;;;;;;27.56;36.48;98083.03;8286038;28;20224;-75
2022/07/23 18:43:14;;;;;;;4.73;4.33;;;;;;;27.53;36.31;98089.53;8285880;28;20235;-76
2022/07/23 18:47:19;;;;;;;5.73;4.90;;;;;;;27.50;36.92;98090.69;8286125;28;20231;-75
2022/07/23 18:51:21;;;;;;;7.50;5.07;;;;;;;27.45;36.88;98097.53;8285598;28;20239;-75
2022/07/23 18:55:25;;;;;;;8.27;4.87;;;;;;;27.43;37.42;98103.03;8285767;28;20507;-76
2022/07/23 18:59:27;;;;;;;8.03;5.00;;;;;;;27.40;37.65;98102.56;8285249;28;20228;-73
2022/07/23 19:03:32;;;;;;;5.27;4.67;;;;;;;27.18;38.12;98117.38;8317578;28;20235;-79